createdAt,value
2023-05-13T00:00:46.719Z,97.21
2023-05-13T00:03:16.761Z,97.56
2023-05-13T00:05:48.818Z,97.61
2023-05-13T00:08:31.855Z,97.73
2023-05-13T00:11:07.929Z,97.91
2023-05-13T00:13:42.307Z,97.94
2023-05-13T00:16:18.473Z,98.06
2023-05-13T00:18:51.560Z,98.12
2023-05-13T00:21:24.584Z,97.95
2023-05-13T00:23:57.398Z,98.18
2023-05-13T00:26:32.513Z,98.28
2023-05-13T00:29:05.006Z,98.14
2023-05-13T00:31:37.407Z,98.16
2023-05-13T00:34:07.458Z,97.97
2023-05-13T00:36:44.953Z,97.90
2023-05-13T00:39:26.738Z,97.60
2023-05-13T00:41:56.628Z,97.54
2023-05-13T00:44:32.384Z,97.39
2023-05-13T00:47:16.172Z,97.44
2023-05-13T00:49:46.260Z,97.37
2023-05-13T00:52:17.379Z,97.15
2023-05-13T00:54:47.244Z,97.09
2023-05-13T00:57:19.394Z,96.72
2023-05-13T00:59:57.546Z,96.51
2023-05-13T01:02:40.984Z,96.34
2023-05-13T01:05:23.477Z,95.95
2023-05-13T01:08:14.968Z,95.75
2023-05-13T01:10:50.124Z,95.65
2023-05-13T01:13:24.394Z,95.76
2023-05-13T01:16:04.720Z,95.65
2023-05-13T01:18:40.170Z,95.65
2023-05-13T01:21:11.848Z,95.52
2023-05-13T01:23:45.848Z,95.67
2023-05-13T01:26:16.707Z,95.74
2023-05-13T01:28:46.578Z,95.54
2023-05-13T01:31:18.166Z,95.51
2023-05-13T01:33:52.434Z,95.53
2023-05-13T01:36:22.847Z,95.48
2023-05-13T01:38:59.584Z,95.25
2023-05-13T01:41:33.982Z,95.14
2023-05-13T01:44:04.297Z,95.03
2023-05-13T01:46:34.755Z,95.03
2023-05-13T01:49:09.265Z,95.04
2023-05-13T01:51:41.785Z,95.17
2023-05-13T01:54:14.361Z,95.03
2023-05-13T01:56:45.405Z,94.92
2023-05-13T01:59:16.551Z,95.05
2023-05-13T02:01:46.501Z,94.96
2023-05-13T02:04:19.425Z,94.96
2023-05-13T02:06:54.875Z,94.90
2023-05-13T02:09:27.360Z,94.86
2023-05-13T02:11:58.580Z,94.91
2023-05-13T02:14:28.422Z,94.85
2023-05-13T02:17:01.769Z,94.88
2023-05-13T02:45:41.093Z,96.29
2023-05-13T02:48:35.397Z,96.44
2023-05-13T02:51:17.806Z,96.43
2023-05-13T02:54:08.035Z,96.62
2023-05-13T02:56:40.463Z,96.68
2023-05-13T02:59:10.508Z,96.74
2023-05-13T03:02:03.759Z,97.00
2023-05-13T03:04:43.788Z,96.86
2023-05-13T03:07:17.373Z,96.96
2023-05-13T03:09:48.648Z,96.75
2023-05-13T03:12:18.604Z,97.00
2023-05-13T03:14:56.043Z,96.99
2023-05-13T03:17:26.162Z,97.22
2023-05-13T03:20:01.278Z,97.37
2023-05-13T03:22:31.711Z,97.42
2023-05-13T03:25:02.792Z,97.33
2023-05-13T03:27:35.027Z,97.19
2023-05-13T03:30:05.181Z,97.12
2023-05-13T03:32:48.455Z,97.22
2023-05-13T03:35:21.070Z,97.14
2023-05-13T03:41:41.048Z,97.04
2023-05-13T03:44:14.404Z,96.96
2023-05-13T03:46:48.859Z,97.07
2023-05-13T03:49:19.259Z,97.12
2023-05-13T03:51:51.778Z,97.18
2023-05-13T03:54:21.604Z,97.26
2023-05-13T03:56:51.450Z,97.19
2023-05-13T03:59:24.574Z,97.15
2023-05-13T04:01:55.980Z,97.24
2023-05-13T04:04:25.888Z,97.30
2023-05-13T04:09:35.486Z,97.29
2023-05-13T04:12:10.140Z,97.17
2023-05-13T04:22:24.068Z,96.92
2023-05-13T04:32:03.440Z,96.76
2023-05-13T04:34:35.053Z,96.70
2023-05-13T05:13:36.743Z,91.67
2023-05-13T05:16:09.245Z,91.34
2023-05-13T05:18:41.572Z,91.35
2023-05-13T05:21:11.558Z,91.31
2023-05-13T05:23:41.862Z,90.94
2023-05-13T05:26:12.570Z,90.63
2023-05-13T05:28:46.366Z,90.51
2023-05-13T05:31:16.689Z,90.15
2023-05-13T05:33:47.246Z,89.80
2023-05-13T05:36:17.195Z,89.40
2023-05-13T05:38:47.592Z,88.72
2023-05-13T05:41:17.561Z,88.69
2023-05-13T05:43:51.488Z,88.26
2023-05-13T05:46:23.041Z,88.15
2023-05-13T05:48:53.138Z,88.47
2023-05-13T05:51:22.914Z,88.36
2023-05-13T05:53:54.395Z,88.34
2023-05-13T05:56:24.268Z,88.42
2023-05-13T05:58:56.806Z,88.31
2023-05-13T06:01:26.733Z,87.71
2023-05-13T06:03:57.376Z,87.63
2023-05-13T06:06:27.403Z,87.94
2023-05-13T06:08:57.272Z,87.70
2023-05-13T06:11:33.638Z,88.00
2023-05-13T06:14:06.123Z,88.03
2023-05-13T06:16:35.970Z,88.28
2023-05-13T06:19:06.194Z,88.15
2023-05-13T06:21:36.080Z,87.69
2023-05-13T06:24:05.934Z,87.89
2023-05-13T06:26:35.878Z,87.99
2023-05-13T06:29:08.335Z,88.08
2023-05-13T06:31:38.268Z,87.94
2023-05-13T06:34:08.244Z,88.06
2023-05-13T06:36:38.084Z,87.90
2023-05-13T06:39:07.929Z,87.66
2023-05-13T06:41:38.708Z,87.23
2023-05-13T06:44:11.276Z,87.19
2023-05-13T06:46:42.659Z,87.04
2023-05-13T06:49:12.488Z,86.92
2023-05-13T06:51:42.638Z,87.41
2023-05-13T06:54:12.432Z,87.41
2023-05-13T06:56:42.418Z,87.28
2023-05-13T06:59:15.450Z,87.50
2023-05-13T07:01:46.078Z,87.26
2023-05-13T07:04:15.999Z,87.27
2023-05-13T07:06:45.833Z,87.63
2023-05-13T07:09:15.762Z,87.57
2023-05-13T07:11:48.434Z,87.04
2023-05-13T07:14:21.643Z,86.90
2023-05-13T07:16:51.492Z,86.93
2023-05-13T07:19:21.466Z,86.34
2023-05-13T07:21:51.403Z,85.80
2023-05-13T07:24:21.285Z,85.63
2023-05-13T07:26:51.107Z,85.49
2023-05-13T07:29:24.131Z,84.95
2023-05-13T07:31:55.142Z,83.94
2023-05-13T07:34:25.048Z,84.19
2023-05-13T07:36:54.865Z,84.09
2023-05-13T07:39:24.703Z,84.01
2023-05-13T07:41:54.549Z,84.33
2023-05-13T07:44:26.992Z,84.65
2023-05-13T07:46:56.790Z,84.15
2023-05-13T07:49:26.634Z,84.20
2023-05-13T07:51:57.062Z,84.45
2023-05-13T07:54:33.139Z,84.51
2023-05-13T07:57:03.053Z,84.79
2023-05-13T07:59:35.591Z,84.71
2023-05-13T08:02:05.456Z,84.45
2023-05-13T08:04:35.452Z,83.33
2023-05-13T08:07:05.403Z,82.07
2023-05-13T08:09:35.219Z,81.35
2023-05-13T08:12:09.590Z,80.59
2023-05-13T08:14:42.069Z,80.44
2023-05-13T08:17:12.348Z,79.39
2023-05-13T08:19:42.208Z,79.91
2023-05-13T08:22:12.004Z,80.74
2023-05-13T08:24:43.423Z,81.43
2023-05-13T08:27:13.267Z,81.68
2023-05-13T08:29:45.696Z,81.98
2023-05-13T08:32:15.604Z,80.58
2023-05-13T08:34:45.492Z,80.22
2023-05-13T08:37:15.451Z,79.98
2023-05-13T08:39:45.311Z,80.53
2023-05-13T08:42:19.465Z,81.57
2023-05-13T08:44:53.405Z,83.30
2023-05-13T08:47:36.761Z,83.98
2023-05-13T08:50:07.710Z,84.59
2023-05-13T08:52:37.665Z,84.89
2023-05-13T08:55:08.965Z,84.89
2023-05-13T08:57:39.430Z,84.42
2023-05-13T09:00:16.182Z,82.84
2023-05-13T09:02:46.105Z,82.58
2023-05-13T09:05:16.199Z,82.53
2023-05-13T09:07:46.563Z,83.52
2023-05-13T09:10:16.411Z,84.07
2023-05-13T09:12:47.869Z,84.49
2023-05-13T09:15:22.184Z,84.49
2023-05-13T09:17:55.177Z,84.54
2023-05-13T09:20:26.903Z,85.14
2023-05-13T09:23:01.299Z,84.95
2023-05-13T09:25:31.963Z,84.49
2023-05-13T09:28:03.689Z,84.53
2023-05-13T09:30:39.334Z,84.85
2023-05-13T09:33:13.909Z,85.47
2023-05-13T09:35:45.897Z,85.82
2023-05-13T09:38:17.497Z,86.32
2023-05-13T09:40:54.781Z,86.58
2023-05-13T09:43:25.919Z,86.68
2023-05-13T09:46:00.575Z,85.30
2023-05-13T09:48:31.838Z,84.77
2023-05-13T09:51:02.084Z,84.93
2023-05-13T09:53:32.358Z,85.17
2023-05-13T09:56:02.417Z,85.32
2023-05-13T09:58:32.638Z,85.46
2023-05-13T10:01:05.897Z,85.07
2023-05-13T10:03:36.004Z,85.88
2023-05-13T10:06:07.413Z,86.17
2023-05-13T10:08:38.297Z,85.95
2023-05-13T10:11:09.562Z,85.41
2023-05-13T10:13:42.972Z,85.00
2023-05-13T10:16:15.614Z,85.06
2023-05-13T10:18:46.338Z,85.22
2023-05-13T10:21:16.964Z,85.61
2023-05-13T10:23:48.515Z,85.86
2023-05-13T10:26:18.768Z,86.01
2023-05-13T10:28:48.976Z,85.73
2023-05-13T10:31:21.479Z,85.31
2023-05-13T10:33:51.497Z,84.89
2023-05-13T10:36:40.821Z,84.49
2023-05-13T10:39:38.718Z,85.67
2023-05-13T10:42:40.141Z,85.26
2023-05-13T10:45:11.571Z,85.27
2023-05-13T10:47:44.109Z,85.67
2023-05-13T10:50:31.879Z,85.73
2023-05-13T10:53:03.641Z,86.62
2023-05-13T10:55:33.791Z,86.60
2023-05-13T10:58:07.961Z,86.21
2023-05-13T11:00:39.267Z,86.24
2023-05-13T11:03:31.892Z,85.96
2023-05-13T11:06:06.155Z,86.56
2023-05-13T11:08:43.963Z,86.44
2023-05-13T11:11:29.574Z,86.82
2023-05-13T11:14:08.866Z,86.93
2023-05-13T11:16:39.278Z,87.21
2023-05-13T11:19:23.441Z,87.43
2023-05-13T11:21:55.691Z,87.02
2023-05-13T11:24:26.805Z,87.01
2023-05-13T11:26:59.293Z,86.60
2023-05-13T11:29:34.518Z,86.64
2023-05-13T11:32:06.501Z,87.16
2023-05-13T11:34:41.445Z,87.55
2023-05-13T11:37:13.228Z,87.18
2023-05-13T11:39:44.181Z,86.87
2023-05-13T11:42:14.710Z,86.71
2023-05-13T11:44:49.658Z,85.09
2023-05-13T11:47:29.006Z,84.67
2023-05-13T11:50:01.502Z,82.81
2023-05-13T11:52:31.356Z,81.21
2023-05-13T11:55:01.200Z,80.66
2023-05-13T11:57:32.992Z,80.85
2023-05-13T12:00:05.049Z,80.76
2023-05-13T12:02:40.980Z,81.22
2023-05-13T12:05:14.962Z,81.40
2023-05-13T12:07:44.829Z,81.83
2023-05-13T12:10:15.070Z,81.83
2023-05-13T12:12:48.814Z,82.01
2023-05-13T12:15:20.389Z,82.79
2023-05-13T12:17:51.884Z,82.68
2023-05-13T12:20:25.391Z,83.26
2023-05-13T12:22:57.762Z,83.26
2023-05-13T12:25:45.283Z,83.93
2023-05-13T12:28:19.837Z,84.08
2023-05-13T12:30:56.300Z,83.82
2023-05-13T12:33:27.531Z,84.42
2023-05-13T12:36:25.874Z,85.06
2023-05-13T12:39:00.956Z,85.61
2023-05-13T12:41:32.541Z,85.78
2023-05-13T12:44:03.804Z,86.19
2023-05-13T12:46:37.329Z,85.93
2023-05-13T12:49:08.811Z,86.57
2023-05-13T12:51:41.249Z,86.70
2023-05-13T12:54:11.081Z,87.14
2023-05-13T12:56:42.132Z,86.81
2023-05-13T12:59:14.514Z,86.54
2023-05-13T13:01:45.175Z,86.76
2023-05-13T13:04:16.974Z,86.92
2023-05-13T13:06:49.600Z,86.61
2023-05-13T13:09:19.444Z,86.40
2023-05-13T13:11:49.306Z,85.92
2023-05-13T13:14:20.880Z,86.14
2023-05-13T13:16:50.725Z,86.32
2023-05-13T13:19:20.746Z,86.08
2023-05-13T13:21:53.212Z,85.32
2023-05-13T13:24:23.026Z,84.54
2023-05-13T13:26:54.481Z,85.20
2023-05-13T13:29:24.557Z,84.74
2023-05-13T13:31:54.756Z,84.56
2023-05-13T13:34:24.636Z,83.55
2023-05-13T13:36:57.133Z,83.61
2023-05-13T13:39:30.737Z,84.09
2023-05-13T13:42:00.548Z,84.00
2023-05-13T13:44:30.342Z,84.02
2023-05-13T13:47:00.192Z,84.53
2023-05-13T13:49:30.030Z,85.46
2023-05-13T13:52:05.522Z,85.76
2023-05-13T13:54:35.462Z,86.08
2023-05-13T13:57:05.452Z,85.61
2023-05-13T13:59:35.253Z,85.01
2023-05-13T14:02:05.046Z,85.12
2023-05-13T14:04:37.202Z,85.04
2023-05-13T14:07:09.929Z,84.77
2023-05-13T14:09:39.725Z,84.45
2023-05-13T14:12:09.704Z,84.70
2023-05-13T14:14:40.366Z,84.58
2023-05-13T14:17:11.633Z,85.03
2023-05-13T14:19:42.925Z,85.78
2023-05-13T14:22:15.686Z,86.04
2023-05-13T14:24:45.584Z,85.86
2023-05-13T14:27:15.440Z,86.51
2023-05-13T14:29:45.239Z,86.06
2023-05-13T14:32:15.161Z,86.43
2023-05-13T14:34:45.107Z,85.59
2023-05-13T14:37:18.301Z,85.41
2023-05-13T14:39:49.935Z,85.73
2023-05-13T14:42:20.364Z,85.27
2023-05-13T14:44:50.153Z,85.60
2023-05-13T14:47:20.016Z,85.97
2023-05-13T14:49:49.892Z,86.32
2023-05-13T14:52:22.374Z,86.29
2023-05-13T14:54:52.623Z,86.46
2023-05-13T14:57:22.872Z,85.63
2023-05-13T14:59:52.740Z,84.90
2023-05-13T15:02:22.679Z,84.61
2023-05-13T15:04:52.682Z,85.27
2023-05-13T15:07:25.375Z,85.78
2023-05-13T15:09:55.190Z,85.84
2023-05-13T15:12:27.355Z,85.45
2023-05-13T15:14:58.582Z,84.73
2023-05-13T15:17:29.213Z,84.11
2023-05-13T15:19:59.104Z,83.64
2023-05-13T15:22:33.319Z,83.45
2023-05-13T15:25:04.809Z,84.09
2023-05-13T15:27:34.635Z,84.48
2023-05-13T15:30:04.715Z,83.67
2023-05-13T15:32:34.639Z,83.76
2023-05-13T15:35:04.574Z,83.58
2023-05-13T15:37:42.827Z,83.22
2023-05-13T15:40:13.717Z,82.73
2023-05-13T15:42:43.521Z,83.07
2023-05-13T15:45:14.185Z,83.42
2023-05-13T15:47:46.446Z,82.74
2023-05-13T15:50:16.779Z,82.88
2023-05-13T15:52:49.206Z,83.28
2023-05-13T15:55:19.178Z,83.65
2023-05-13T15:57:50.507Z,84.17
2023-05-13T16:00:21.778Z,84.53
2023-05-13T16:02:51.853Z,84.68
2023-05-13T16:05:21.857Z,84.72
2023-05-13T16:07:54.346Z,84.78
2023-05-13T16:10:24.482Z,85.21
2023-05-13T16:12:54.857Z,85.85
2023-05-13T16:15:25.230Z,86.00
2023-05-13T16:17:55.291Z,86.08
2023-05-13T16:20:25.464Z,85.88
2023-05-13T16:22:58.009Z,86.14
2023-05-13T16:25:27.816Z,85.84
2023-05-13T16:27:57.669Z,85.74
2023-05-13T16:30:27.679Z,86.02
2023-05-13T16:32:57.703Z,86.12
2023-05-13T16:35:27.599Z,86.58
2023-05-13T16:38:00.137Z,86.78
2023-05-13T16:40:30.001Z,87.41
2023-05-13T16:43:03.244Z,87.64
2023-05-13T16:45:33.816Z,88.23
2023-05-13T16:48:04.054Z,88.79
2023-05-13T16:50:34.179Z,89.50
2023-05-13T16:53:06.778Z,90.29
2023-05-13T16:55:36.676Z,90.78
2023-05-13T16:58:06.454Z,91.16
2023-05-13T17:00:36.269Z,91.47
2023-05-13T17:03:06.169Z,91.65
2023-05-13T17:05:36.696Z,91.83
2023-05-13T17:08:09.334Z,92.20
2023-05-13T17:10:39.244Z,92.72
2023-05-13T17:13:11.494Z,93.25
2023-05-13T17:15:41.407Z,93.63
2023-05-13T17:18:12.084Z,94.03
2023-05-13T17:20:42.211Z,94.66
2023-05-13T17:23:16.989Z,95.16
2023-05-13T17:25:46.956Z,95.76
2023-05-13T17:28:16.995Z,95.79
2023-05-13T17:30:47.081Z,96.08
2023-05-13T17:33:17.005Z,96.19
2023-05-13T17:35:47.038Z,96.25
2023-05-13T17:38:19.543Z,96.50
2023-05-13T17:40:49.351Z,96.73
2023-05-13T17:43:21.346Z,97.05
2023-05-13T17:45:51.199Z,97.07
2023-05-13T17:48:21.128Z,97.33
2023-05-13T17:50:51.418Z,97.43
2023-05-13T17:53:24.258Z,97.72
2023-05-13T17:56:03.176Z,97.42
2023-05-13T17:58:33.065Z,97.52
2023-05-13T18:01:03.217Z,97.48
2023-05-13T18:03:33.240Z,97.56
2023-05-13T18:06:03.120Z,97.61
2023-05-13T18:08:36.359Z,97.54
2023-05-13T18:11:06.304Z,97.16
2023-05-13T18:13:36.178Z,97.04
2023-05-13T18:16:07.199Z,96.83
2023-05-13T18:18:37.259Z,96.73
2023-05-13T18:21:07.429Z,96.66
2023-05-13T18:23:39.842Z,96.35
2023-05-13T18:26:09.636Z,96.50
2023-05-13T18:28:39.483Z,96.53
2023-05-13T18:31:09.373Z,96.47
2023-05-13T18:33:39.207Z,96.54
2023-05-13T18:36:10.405Z,96.63
2023-05-13T18:38:42.950Z,96.67
2023-05-13T18:41:12.844Z,96.59
2023-05-13T18:43:42.696Z,96.82
2023-05-13T18:46:14.290Z,96.77
2023-05-13T18:48:44.276Z,96.62
2023-05-13T18:51:14.647Z,96.67
2023-05-13T18:53:48.347Z,96.67
2023-05-13T18:56:18.225Z,96.86
2023-05-13T18:58:48.744Z,96.84
2023-05-13T19:01:18.815Z,97.12
2023-05-13T19:03:49.030Z,97.32
2023-05-13T19:06:18.936Z,97.50
2023-05-13T19:08:52.174Z,97.59
2023-05-13T19:11:22.930Z,97.95
2023-05-13T19:13:52.736Z,98.30
2023-05-13T19:16:22.639Z,98.43
2023-05-13T19:18:53.432Z,98.56
2023-05-13T19:21:23.722Z,98.92
2023-05-13T19:23:56.262Z,99.07
2023-05-13T19:26:26.239Z,99.10
2023-05-13T19:28:59.222Z,99.30
2023-05-13T19:31:29.765Z,99.52
2023-05-13T19:34:01.030Z,99.68
2023-05-13T19:36:31.354Z,99.67
2023-05-13T19:39:06.937Z,99.84
2023-05-13T19:41:38.060Z,99.95
2023-05-13T19:44:07.917Z,100.00
2023-05-13T19:46:38.179Z,99.98
2023-05-13T19:49:08.103Z,100.00
2023-05-13T19:51:38.004Z,100.00
2023-05-13T19:54:12.689Z,100.00
2023-05-13T19:56:43.464Z,100.00
2023-05-13T19:59:13.295Z,100.00
2023-05-13T20:01:43.322Z,100.00
2023-05-13T20:04:13.248Z,100.00
2023-05-13T20:06:46.852Z,100.00
2023-05-13T20:09:19.284Z,100.00
2023-05-13T20:11:49.172Z,100.00
2023-05-13T20:14:23.630Z,100.00
2023-05-13T20:16:55.812Z,100.00
2023-05-13T20:19:25.654Z,100.00
2023-05-13T20:21:55.842Z,100.00
2023-05-13T20:24:28.300Z,100.00
2023-05-13T20:26:58.477Z,100.00
2023-05-13T20:29:28.367Z,100.00
2023-05-13T20:31:58.339Z,100.00
2023-05-13T20:34:28.269Z,100.00
2023-05-13T20:36:58.151Z,100.00
2023-05-13T20:39:31.422Z,100.00
2023-05-13T20:42:01.414Z,100.00
2023-05-13T20:44:31.307Z,100.00
2023-05-13T20:47:01.177Z,100.00
2023-05-13T20:49:31.398Z,100.00
2023-05-13T20:52:08.445Z,100.00
2023-05-13T20:54:41.810Z,100.00
2023-05-13T20:57:11.597Z,100.00
2023-05-13T20:59:41.431Z,100.00
2023-05-13T21:02:14.133Z,100.00
2023-05-13T21:04:44.039Z,100.00
2023-05-13T21:07:14.206Z,100.00
2023-05-13T21:09:51.798Z,100.00
2023-05-13T21:12:33.056Z,100.00
2023-05-13T21:15:03.003Z,100.00
2023-05-13T21:17:35.457Z,100.00
2023-05-13T21:20:05.459Z,100.00
2023-05-13T21:22:35.726Z,100.00
2023-05-13T21:25:11.208Z,100.00
2023-05-13T21:27:41.194Z,100.00
2023-05-13T21:30:12.824Z,100.00
2023-05-13T21:32:45.514Z,100.00
2023-05-13T21:35:15.392Z,100.00
2023-05-13T21:37:47.357Z,100.00
2023-05-13T21:40:21.650Z,100.00
2023-05-13T21:42:52.054Z,100.00
2023-05-13T21:45:22.775Z,100.00
2023-05-13T21:47:53.028Z,100.00
2023-05-13T21:50:23.515Z,100.00
2023-05-13T21:53:01.895Z,100.00
2023-05-13T22:06:07.349Z,100.00
2023-05-13T22:08:37.294Z,100.00
2023-05-13T22:11:07.537Z,100.00
2023-05-13T22:13:38.577Z,100.00
2023-05-13T22:16:08.801Z,100.00
2023-05-13T22:18:38.969Z,100.00
2023-05-13T22:21:11.677Z,100.00
2023-05-13T22:23:41.769Z,100.00
2023-05-13T22:26:12.198Z,100.00
2023-05-13T22:28:42.119Z,100.00
2023-05-13T22:31:12.055Z,100.00
2023-05-13T22:33:42.103Z,100.00
2023-05-13T22:36:18.926Z,100.00
2023-05-13T22:38:48.761Z,100.00
2023-05-13T22:41:20.944Z,100.00
2023-05-13T22:43:50.814Z,100.00
2023-05-13T22:46:34.432Z,100.00
2023-05-13T22:49:04.401Z,100.00
2023-05-13T22:51:38.158Z,100.00
2023-05-13T22:54:08.813Z,100.00
2023-05-13T22:56:38.588Z,100.00
2023-05-13T22:59:09.995Z,100.00
2023-05-13T23:01:43.184Z,100.00
2023-05-13T23:04:16.172Z,100.00
2023-05-13T23:06:50.787Z,100.00
2023-05-13T23:09:23.524Z,100.00
2023-05-13T23:11:56.981Z,100.00
2023-05-13T23:14:29.078Z,100.00
2023-05-13T23:16:58.933Z,100.00
2023-05-13T23:19:43.730Z,100.00
2023-05-13T23:22:28.270Z,100.00
2023-05-13T23:24:58.132Z,100.00
2023-05-13T23:27:28.553Z,100.00
2023-05-13T23:29:58.394Z,100.00
2023-05-13T23:32:30.617Z,100.00
2023-05-13T23:35:00.476Z,100.00
2023-05-13T23:37:32.955Z,100.00
2023-05-13T23:40:02.749Z,100.00
2023-05-13T23:42:34.445Z,100.00
2023-05-13T23:45:04.410Z,100.00
2023-05-13T23:47:34.242Z,100.00
2023-05-13T23:50:04.077Z,100.00
2023-05-13T23:52:36.583Z,100.00
2023-05-13T23:55:06.964Z,100.00
2023-05-13T23:57:36.825Z,100.00
